Portada
Imágenes satélite Pronóstico 10 díasClimaPredicción Marítima Ciclones Rayo AeropuertosFAQ Noticias Acerca
El tiempo : Europa África América del Norte América del Sur Asia Australia-Oceanía Otros
Idiomas Contacto

Humberside, Inglaterra

latitud: 53-35N, longitud: 000-21W, altitud: 31 m


METAR: EGNJ 012150Z 19006KT 9999 FEW010 13/12 Q1016
TAF: EGNJ 011958Z 0121/0206 20005KT 9999 FEW010 PROB30 0202/0205 8000

Hora: 23:10 (22:10 UTC)

Observación

El informe se hizo hace 20 minutos, a las 21:50 UTC
Viento 6 kt del sur
Temperatura 13°C
Humedad 94%
Presión 1016 hPa
Visibilidad 10 km o más
Escasas nubes a una altura de 1000 ft

Cambiar las unidades

Pronóstico

El informe se hizo hace 2 horas y 12 minutos, a las 19:58 UTC
Pronóstico válido del 01 a las 21 UTC al 02 a las 06 UTC
Viento 5 kt del sur-suroeste
Visibilidad 10 km o más
Escasas nubes a una altura de 1000 ft
Probabilidad 30%
del 02 a las 02 UTC al 02 a las 05 UTC
Visibilidad: 8000 m
La información que se ofrece en estas páginas está sujeta a una cláusula de exención de responsabilidad
El tiempo : Europa África América del Norte América del Sur Asia Australia-Oceanía Otros
Imágenes satélite Pronóstico 10 díasClimaPredicción Marítima Ciclones Rayo AeropuertosFAQ Idiomas Contacto Noticias Acerca